Time;durP1;ratioP1;P1;durP2;ratioP2;P2;SDS_P1;SDS_P2;PMS_P1;PMS_P2;Temp;Humidity;BMP_temperature;BMP_pressure;BME280_temperature;BME280_humidity;BME280_pressure;Samples;Min_cycle;Max_cycle;Signal;HPM_P1;HPM_P2
2023/10/25 00:00:00;;;;;;;;;;;;;;;6.65;100.00;100231.34;5080678;28;19920;-75
2023/10/25 00:02:25;;;;;;;;;;;;;;;6.63;100.00;100227.91;5081727;28;19920;-75
2023/10/25 00:04:54;;;;;;;;;;;;;;;6.61;100.00;100235.72;5085891;28;19926;-75
2023/10/25 00:07:20;;;;;;;;;;;;;;;6.60;100.00;100223.63;5080164;28;19927;-75
2023/10/25 00:09:45;;;;;;;;;;;;;;;6.59;100.00;100223.66;5084607;28;19920;-75
2023/10/25 00:12:10;;;;;;;;;;;;;;;6.56;100.00;100222.84;5086197;28;19927;-75
2023/10/25 00:14:35;;;;;;;;;;;;;;;6.54;100.00;100218.59;5083517;28;19931;-75
2023/10/25 00:17:00;;;;;;;;;;;;;;;6.54;100.00;100221.16;5086193;28;19979;-75
2023/10/25 00:19:26;;;;;;;;;;;;;;;6.52;100.00;100209.97;5080208;28;20452;-75
2023/10/25 00:21:51;;;;;;;;;;;;;;;6.50;100.00;100209.97;5080948;28;19920;-74
2023/10/25 00:24:16;;;;;;;;;;;;;;;6.49;100.00;100207.44;5080788;28;19920;-75
2023/10/25 00:26:41;;;;;;;;;;;;;;;6.47;100.00;100207.44;5076885;28;20003;-75
2023/10/25 00:29:06;;;;;;;;;;;;;;;6.46;100.00;100205.75;5084124;28;19920;-74
2023/10/25 00:31:31;;;;;;;;;;;;;;;6.42;100.00;100206.69;5078879;28;20294;-75
2023/10/25 00:33:57;;;;;;;;;;;;;;;6.42;100.00;100208.41;5076766;28;19968;-75
2023/10/25 00:36:22;;;;;;;;;;;;;;;6.39;100.00;100213.66;5080220;28;19928;-75
2023/10/25 00:38:47;;;;;;;;;;;;;;;6.39;100.00;100216.22;5074832;28;20023;-75
2023/10/25 00:41:12;;;;;;;;;;;;;;;6.38;100.00;100211.94;5081980;28;19924;-75
2023/10/25 00:43:38;;;;;;;;;;;;;;;6.35;100.00;100206.81;5079958;28;19920;-75
2023/10/25 00:46:09;;;;;;;;;;;;;;;6.32;100.00;100213.75;5085671;28;19927;-75
2023/10/25 00:48:35;;;;;;;;;;;;;;;6.32;100.00;100205.13;5084230;28;19920;-75
2023/10/25 00:51:01;;;;;;;;;;;;;;;6.31;100.00;100211.16;5083536;28;19920;-74
2023/10/25 00:53:27;;;;;;;;;;;;;;;6.29;100.00;100210.34;5080591;28;19935;-75
2023/10/25 00:55:53;;;;;;;;;;;;;;;6.28;100.00;100212.09;5066732;28;20394;-75
2023/10/25 00:58:18;;;;;;;;;;;;;;;6.28;100.00;100206.06;5077690;28;20415;-75
2023/10/25 01:00:44;;;;;;;;;;;;;;;6.28;100.00;100208.66;5080743;28;19944;-75
2023/10/25 01:03:11;;;;;;;;;;;;;;;6.25;100.00;100198.34;5083025;28;19924;-75
2023/10/25 01:05:36;;;;;;;;;;;;;;;6.26;100.00;100197.44;5078091;28;19928;-75
2023/10/25 01:08:01;;;;;;;;;;;;;;;6.24;100.00;100197.47;5087348;28;19965;-75
2023/10/25 01:10:27;;;;;;;;;;;;;;;6.22;100.00;100191.47;5076882;28;19923;-74
2023/10/25 01:12:52;;;;;;;;;;;;;;;6.22;100.00;100194.06;5091302;28;20283;-75
2023/10/25 01:15:22;;;;;;;;;;;;;;;6.21;100.00;100188.91;5082742;28;19978;-75
2023/10/25 01:17:47;;;;;;;;;;;;;;;6.20;100.00;100190.63;5090034;28;19946;-75
2023/10/25 01:20:12;;;;;;;;;;;;;;;6.19;100.00;100190.66;5091704;28;19931;-75
2023/10/25 01:22:38;;;;;;;;;;;;;;;6.19;100.00;100186.34;5094441;28;19942;-75
2023/10/25 01:25:03;;;;;;;;;;;;;;;6.18;100.00;100182.06;5085467;28;19920;-75
2023/10/25 01:27:28;;;;;;;;;;;;;;;6.17;100.00;100174.31;5080592;28;19924;-75
2023/10/25 01:29:53;;;;;;;;;;;;;;;6.15;100.00;100176.03;5085865;28;19928;-75
2023/10/25 01:32:19;;;;;;;;;;;;;;;6.16;100.00;100160.50;5083594;28;19920;-75
2023/10/25 01:34:44;;;;;;;;;;;;;;;6.14;100.00;100158.81;5087350;28;19927;-75
2023/10/25 01:37:09;;;;;;;;;;;;;;;6.13;100.00;100152.78;5089560;28;20366;-75
2023/10/25 01:39:34;;;;;;;;;;;;;;;6.11;100.00;100151.94;5093482;28;19927;-75
2023/10/25 01:42:00;;;;;;;;;;;;;;;6.13;100.00;100149.34;5080243;28;19921;-75
2023/10/25 01:44:25;;;;;;;;;;;;;;;6.16;100.00;100138.94;5079776;28;19987;-75
2023/10/25 01:46:50;;;;;;;;;;;;;;;6.17;100.00;100138.06;5082234;28;19939;-75
2023/10/25 01:49:15;;;;;;;;;;;;;;;6.17;100.00;100131.16;5082223;28;20469;-75
2023/10/25 01:51:40;;;;;;;;;;;;;;;6.19;100.00;100136.31;5085024;28;19929;-75
2023/10/25 01:54:05;;;;;;;;;;;;;;;6.24;100.00;100135.34;5078913;28;19975;-74
2023/10/25 01:56:31;;;;;;;;;;;;;;;6.31;100.00;100128.31;5088773;28;19966;-74
2023/10/25 01:58:56;;;;;;;;;;;;;;;6.36;100.00;100126.53;5081881;28;19925;-74
2023/10/25 02:01:21;;;;;;;;;;;;;;;6.42;100.00;100128.16;5083304;28;19921;-75
2023/10/25 02:03:46;;;;;;;;;;;;;;;6.48;100.00;100117.69;5084329;28;20401;-75
2023/10/25 02:06:14;;;;;;;;;;;;;;;6.54;100.00;100120.16;5090251;28;19972;-75
2023/10/25 02:08:40;;;;;;;;;;;;;;;6.56;100.00;100121.81;5077687;28;19924;-75
2023/10/25 02:11:06;;;;;;;;;;;;;;;6.61;100.00;100121.75;5090978;28;20501;-75
2023/10/25 02:13:31;;;;;;;;;;;;;;;6.62;100.00;100120.88;5085721;28;19920;-75
2023/10/25 02:15:56;;;;;;;;;;;;;;;6.63;100.00;100119.13;5074584;28;19926;-75
2023/10/25 02:18:21;;;;;;;;;;;;;;;6.62;100.00;100118.28;5086095;28;19927;-75
2023/10/25 02:20:46;;;;;;;;;;;;;;;6.62;100.00;100107.91;5086868;28;20375;-75
2023/10/25 02:23:12;;;;;;;;;;;;;;;6.63;100.00;100108.75;5082531;28;19920;-74
2023/10/25 02:25:37;;;;;;;;;;;;;;;6.65;100.00;100105.28;5085183;28;19920;-75
2023/10/25 02:28:02;;;;;;;;;;;;;;;6.66;100.00;100103.53;5085525;28;20023;-75
2023/10/25 02:30:27;;;;;;;;;;;;;;;6.68;100.00;100091.41;5083549;28;20406;-74
2023/10/25 02:32:52;;;;;;;;;;;;;;;6.71;100.00;100094.78;5083830;28;19928;-74
2023/10/25 02:35:18;;;;;;;;;;;;;;;6.73;100.00;100086.97;5082464;28;19920;-75
2023/10/25 02:37:43;;;;;;;;;;;;;;;6.75;100.00;100088.66;5086255;28;19928;-75
2023/10/25 02:40:08;;;;;;;;;;;;;;;6.76;100.00;100085.19;5085583;28;19924;-75
2023/10/25 02:42:35;;;;;;;;;;;;;;;6.73;100.00;100080.06;5087414;28;20379;-75
2023/10/25 02:45:00;;;;;;;;;;;;;;;6.71;100.00;100079.25;5080637;28;20015;-75
2023/10/25 02:47:25;;;;;;;;;;;;;;;6.69;100.00;100083.59;5090224;28;20023;-75
2023/10/25 02:49:51;;;;;;;;;;;;;;;6.67;100.00;100075.03;5084115;28;19964;-75
2023/10/25 02:52:16;;;;;;;;;;;;;;;6.66;100.00;100070.72;5082637;28;19928;-75
2023/10/25 02:54:41;;;;;;;;;;;;;;;6.67;100.00;100068.97;5082738;28;19920;-75
2023/10/25 02:57:06;;;;;;;;;;;;;;;6.68;100.00;100061.19;5081624;28;19956;-75
2023/10/25 02:59:31;;;;;;;;;;;;;;;6.70;100.00;100064.59;5091147;28;19927;-75
2023/10/25 03:01:56;;;;;;;;;;;;;;;6.75;100.00;100065.34;5080146;28;19928;-75
2023/10/25 03:04:22;;;;;;;;;;;;;;;6.77;100.00;100055.81;5084410;28;20391;-75
2023/10/25 03:06:47;;;;;;;;;;;;;;;6.82;100.00;100050.53;5088839;28;19920;-75
2023/10/25 03:09:12;;;;;;;;;;;;;;;6.87;100.00;100042.69;5079782;28;20006;-75
2023/10/25 03:11:38;;;;;;;;;;;;;;;6.90;100.00;100045.19;5087559;28;20417;-75
2023/10/25 03:14:03;;;;;;;;;;;;;;;6.93;100.00;100039.94;5086975;28;19924;-75
2023/10/25 03:16:28;;;;;;;;;;;;;;;6.95;100.00;100035.59;5092361;28;19986;-75
2023/10/25 03:18:53;;;;;;;;;;;;;;;6.98;100.00;100019.97;5083431;28;20307;-75
2023/10/25 03:21:18;;;;;;;;;;;;;;;6.98;100.00;100030.34;5082331;28;19981;-75
2023/10/25 03:23:44;;;;;;;;;;;;;;;6.99;100.00;100024.25;5075565;28;19920;-75
2023/10/25 03:26:09;;;;;;;;;;;;;;;7.02;100.00;100019.00;5082946;28;19931;-75
2023/10/25 03:28:34;;;;;;;;;;;;;;;7.04;100.00;100012.91;5077267;28;19920;-75
2023/10/25 03:31:09;;;;;;;;;;;;;;;7.05;100.00;100018.94;5085480;28;19920;-75
2023/10/25 03:33:34;;;;;;;;;;;;;;;7.08;100.00;100023.22;5085151;28;19959;-75
2023/10/25 03:36:00;;;;;;;;;;;;;;;7.07;100.00;100019.78;5080643;28;19971;-75
2023/10/25 03:38:25;;;;;;;;;;;;;;;7.08;100.00;100018.88;5082901;28;19920;-74
2023/10/25 03:40:59;;;;;;;;;;;;;;;7.09;100.00;100015.38;5084428;28;19988;-75
2023/10/25 03:43:24;;;;;;;;;;;;;;;7.08;100.00;100013.69;5087181;28;19951;-75
2023/10/25 03:45:49;;;;;;;;;;;;;;;7.10;100.00;100005.91;5081626;28;19975;-74
2023/10/25 03:48:14;;;;;;;;;;;;;;;7.11;100.00;100005.00;5084052;28;20372;-75
2023/10/25 03:50:40;;;;;;;;;;;;;;;7.12;100.00;100004.94;5085048;28;19920;-75
2023/10/25 03:53:05;;;;;;;;;;;;;;;7.13;100.00;100006.69;5078113;28;19916;-74
2023/10/25 03:55:30;;;;;;;;;;;;;;;7.14;100.00;100008.38;5085390;28;19920;-75
2023/10/25 03:57:55;;;;;;;;;;;;;;;7.15;100.00;100002.28;5083421;28;19927;-75
2023/10/25 04:00:21;;;;;;;;;;;;;;;7.16;100.00;100001.44;5080324;28;19916;-75
2023/10/25 04:02:46;;;;;;;;;;;;;;;7.16;100.00;99998.84;5073918;28;20363;-75
2023/10/25 04:05:11;;;;;;;;;;;;;;;7.17;100.00;99999.69;5084444;28;19943;-75
2023/10/25 04:07:36;;;;;;;;;;;;;;;7.19;100.00;100003.06;5082739;28;19977;-75
2023/10/25 04:10:01;;;;;;;;;;;;;;;7.20;100.00;99997.88;5068667;28;20003;-75
2023/10/25 04:12:27;;;;;;;;;;;;;;;7.20;100.00;99995.28;5077462;28;19927;-75
2023/10/25 04:14:52;;;;;;;;;;;;;;;7.21;100.00;99991.78;5083112;28;19959;-75
2023/10/25 04:17:18;;;;;;;;;;;;;;;7.22;100.00;99996.06;5078810;28;19989;-75
2023/10/25 04:19:43;;;;;;;;;;;;;;;7.23;100.00;99994.38;5076197;28;19973;-75
2023/10/25 04:22:08;;;;;;;;;;;;;;;7.24;100.00;99999.50;5078534;28;19924;-75
2023/10/25 04:24:33;;;;;;;;;;;;;;;7.27;100.00;99993.41;5079156;28;19920;-75
2023/10/25 04:26:59;;;;;;;;;;;;;;;7.28;100.00;99995.94;5080079;28;19925;-75
2023/10/25 04:29:24;;;;;;;;;;;;;;;7.30;100.00;99990.72;5077668;28;20008;-75
2023/10/25 04:31:50;;;;;;;;;;;;;;;7.32;100.00;99982.91;5082475;28;19920;-75
2023/10/25 04:34:15;;;;;;;;;;;;;;;7.33;100.00;99982.03;5081084;28;19920;-75
2023/10/25 04:36:40;;;;;;;;;;;;;;;7.33;100.00;99977.69;5080853;28;19981;-74
2023/10/25 04:39:08;;;;;;;;;;;;;;;7.31;100.00;99974.28;5082912;28;20383;-74
2023/10/25 04:41:33;;;;;;;;;;;;;;;7.35;100.00;99980.25;5074688;28;20506;-75
2023/10/25 04:43:58;;;;;;;;;;;;;;;7.35;100.00;99975.91;5090278;28;20007;-75
2023/10/25 04:46:23;;;;;;;;;;;;;;;7.36;100.00;99969.00;5091352;28;19920;-75
2023/10/25 04:48:48;;;;;;;;;;;;;;;7.37;100.00;99965.50;5085415;28;19981;-74
2023/10/25 04:51:14;;;;;;;;;;;;;;;7.36;100.00;99966.41;5085265;28;19923;-75
2023/10/25 04:53:43;;;;;;;;;;;;;;;7.37;100.00;99962.91;5092735;28;20041;-75
2023/10/25 04:56:08;;;;;;;;;;;;;;;7.37;100.00;99957.72;5085939;28;19948;-75
2023/10/25 04:58:33;;;;;;;;;;;;;;;7.37;100.00;99953.38;5083016;28;19954;-75
2023/10/25 05:00:58;;;;;;;;;;;;;;;7.37;100.00;99947.34;5092282;28;19927;-75
2023/10/25 05:03:24;;;;;;;;;;;;;;;7.37;100.00;99943.03;5085376;28;19916;-75
2023/10/25 05:05:49;;;;;;;;;;;;;;;7.39;100.00;99941.25;5085665;28;19927;-75
2023/10/25 05:08:14;;;;;;;;;;;;;;;7.37;100.00;99935.25;5094063;28;19946;-75
2023/10/25 05:10:40;;;;;;;;;;;;;;;7.39;100.00;99927.41;5078395;28;19946;-74
2023/10/25 05:13:05;;;;;;;;;;;;;;;7.39;100.00;99930.88;5093240;28;19927;-75
2023/10/25 05:15:31;;;;;;;;;;;;;;;7.39;100.00;99928.28;5086102;28;19920;-74
2023/10/25 05:17:56;;;;;;;;;;;;;;;7.39;100.00;99928.28;5089566;28;19955;-75
2023/10/25 05:20:22;;;;;;;;;;;;;;;7.40;100.00;99923.94;5087253;28;19928;-75
2023/10/25 05:22:51;;;;;;;;;;;;;;;7.40;100.00;99916.16;5086942;28;20355;-75
2023/10/25 05:25:17;;;;;;;;;;;;;;;7.40;100.00;99913.56;5070907;28;20027;-75
2023/10/25 05:27:42;;;;;;;;;;;;;;;7.39;100.00;99910.13;5086306;28;20011;-75
2023/10/25 05:30:09;;;;;;;;;;;;;;;7.39;100.00;99910.13;5087124;28;19947;-75
2023/10/25 05:32:35;;;;;;;;;;;;;;;7.39;100.00;99917.91;5088027;28;19920;-75
2023/10/25 05:35:02;;;;;;;;;;;;;;;7.40;100.00;99903.19;5083609;28;19973;-75
2023/10/25 05:37:28;;;;;;;;;;;;;;;7.39;100.00;99896.28;5089672;28;19966;-74
2023/10/25 05:39:54;;;;;;;;;;;;;;;7.39;100.00;99901.47;5081969;28;19924;-75
2023/10/25 05:42:19;;;;;;;;;;;;;;;7.40;100.00;99893.69;5077520;28;19965;-75
2023/10/25 05:44:45;;;;;;;;;;;;;;;7.39;100.00;99889.38;5086142;28;19920;-75
2023/10/25 05:47:10;;;;;;;;;;;;;;;7.41;100.00;99891.94;5088940;28;19928;-75
2023/10/25 05:49:36;;;;;;;;;;;;;;;7.41;100.00;99885.00;5081859;28;19920;-75
2023/10/25 05:52:01;;;;;;;;;;;;;;;7.42;100.00;99886.72;5077816;28;19928;-75
2023/10/25 05:54:26;;;;;;;;;;;;;;;7.42;100.00;99884.13;5087158;28;20382;-75
2023/10/25 05:56:52;;;;;;;;;;;;;;;7.44;100.00;99886.66;5084257;28;20306;-75
2023/10/25 05:59:17;;;;;;;;;;;;;;;7.45;100.00;99880.56;5086449;28;19920;-75
2023/10/25 06:01:47;;;;;;;;;;;;;;;7.46;100.00;99879.72;5082258;28;19920;-75
2023/10/25 06:04:13;;;;;;;;;;;;;;;7.46;100.00;99882.31;5086857;28;19951;-75
2023/10/25 06:06:41;;;;;;;;;;;;;;;7.46;100.00;99880.56;5086162;28;19951;-76
2023/10/25 06:09:06;;;;;;;;;;;;;;;7.47;100.00;99881.41;5078691;28;19928;-75
2023/10/25 06:11:31;;;;;;;;;;;;;;;7.49;100.00;99877.03;5088830;28;19981;-75
2023/10/25 06:13:57;;;;;;;;;;;;;;;7.51;100.00;99867.44;5084950;28;20299;-75
2023/10/25 06:16:22;;;;;;;;;;;;;;;7.52;100.00;99866.59;5083026;28;19978;-75
2023/10/25 06:18:47;;;;;;;;;;;;;;;7.53;100.00;99863.09;5083384;28;19995;-75
2023/10/25 06:21:12;;;;;;;;;;;;;;;7.54;100.00;99862.19;5082333;28;20330;-75
2023/10/25 06:23:38;;;;;;;;;;;;;;;7.54;100.00;99851.81;5080545;28;19920;-75
2023/10/25 06:26:03;;;;;;;;;;;;;;;7.55;100.00;99853.50;5076448;28;19924;-76
2023/10/25 06:28:29;;;;;;;;;;;;;;;7.59;100.00;99844.78;5082512;28;19924;-76
2023/10/25 06:30:54;;;;;;;;;;;;;;;7.61;100.00;99840.38;5076365;28;19956;-76
2023/10/25 06:33:19;;;;;;;;;;;;;;;7.62;100.00;99842.09;5087195;28;20318;-76
2023/10/25 06:35:45;;;;;;;;;;;;;;;7.64;100.00;99842.88;5078575;28;19920;-75
2023/10/25 06:38:10;;;;;;;;;;;;;;;7.66;100.00;99830.75;5082952;28;20010;-75
2023/10/25 06:40:35;;;;;;;;;;;;;;;7.69;100.00;99828.06;5087823;28;19927;-76
2023/10/25 06:43:01;;;;;;;;;;;;;;;7.70;100.00;99829.75;5085767;28;19920;-76
2023/10/25 06:45:27;;;;;;;;;;;;;;;7.72;100.00;99820.19;5082623;28;20426;-75
2023/10/25 06:47:52;;;;;;;;;;;;;;;7.77;100.00;99816.63;5071250;28;19952;-75
2023/10/25 06:50:18;;;;;;;;;;;;;;;7.79;100.00;99809.66;5076804;28;20399;-76
2023/10/25 06:52:43;;;;;;;;;;;;;;;7.81;100.00;99807.84;5069046;28;20021;-75
2023/10/25 06:55:09;;;;;;;;;;;;;;;7.84;100.00;99799.97;5077487;28;19924;-75
2023/10/25 06:57:35;;;;;;;;;;;;;;;7.87;100.00;99805.06;5084012;28;20398;-75
2023/10/25 07:00:02;;;;;;;;;;;;;;;7.89;100.00;99793.75;5080068;28;19920;-75
2023/10/25 07:02:27;;;;;;;;;;;;;;;7.93;100.00;99797.13;5086430;28;20022;-75
2023/10/25 07:04:56;;;;;;;;;;;;;;;7.95;100.00;99790.16;5081845;28;19982;-75
2023/10/25 07:07:23;;;;;;;;;;;;;;;7.97;100.00;99789.19;5084275;28;19920;-76
2023/10/25 07:09:48;;;;;;;;;;;;;;;8.00;100.00;99784.81;5079916;28;19973;-75
2023/10/25 07:12:13;;;;;;;;;;;;;;;8.01;100.00;99777.00;5080467;28;19928;-75
2023/10/25 07:14:38;;;;;;;;;;;;;;;8.01;100.00;99774.41;5086780;28;19920;-75
2023/10/25 07:17:04;;;;;;;;;;;;;;;8.03;100.00;99775.19;5063631;28;20303;-75
2023/10/25 07:19:29;;;;;;;;;;;;;;;8.03;100.00;99784.72;5074998;28;19928;-75
2023/10/25 07:21:54;;;;;;;;;;;;;;;8.04;100.00;99779.47;5081461;28;19924;-76
2023/10/25 07:24:19;;;;;;;;;;;;;;;8.05;100.00;99780.34;5081084;28;20356;-75
2023/10/25 07:26:44;;;;;;;;;;;;;;;8.03;100.00;99774.34;5087549;28;19927;-76
2023/10/25 07:29:09;;;;;;;;;;;;;;;8.03;100.00;99774.34;5082559;28;20378;-77
2023/10/25 07:31:35;;;;;;;;;;;;;;;8.02;100.00;99776.09;5081291;28;19920;-76
2023/10/25 07:34:00;;;;;;;;;;;;;;;8.02;100.00;99759.66;5079336;28;19975;-76
2023/10/25 07:36:25;;;;;;;;;;;;;;;8.03;100.00;99757.00;5081721;28;20429;-76
2023/10/25 07:38:51;;;;;;;;;;;;;;;8.05;100.00;99759.56;5080840;28;19927;-77
2023/10/25 07:41:16;;;;;;;;;;;;;;;8.08;100.00;99755.13;5077243;28;19921;-77
2023/10/25 07:43:41;;;;;;;;;;;;;;;8.12;100.00;99761.09;5080117;28;19927;-77
2023/10/25 07:46:08;;;;;;;;;;;;;;;8.14;100.00;99741.09;5077335;28;19920;-77
2023/10/25 07:48:33;;;;;;;;;;;;;;;8.17;100.00;99744.47;5083304;28;19924;-77
2023/10/25 07:51:02;;;;;;;;;;;;;;;8.23;100.00;99739.97;5087237;28;20319;-77
2023/10/25 07:53:27;;;;;;;;;;;;;;;8.27;100.00;99731.19;5071134;28;19936;-77
2023/10/25 07:55:53;;;;;;;;;;;;;;;8.33;100.00;99724.03;5080828;28;19925;-77
2023/10/25 07:58:18;;;;;;;;;;;;;;;8.37;100.00;99723.06;5077142;28;20383;-76
2023/10/25 08:00:45;;;;;;;;;;;;;;;8.42;100.00;99707.34;5083310;28;20294;-76
2023/10/25 08:03:13;;;;;;;;;;;;;;;8.46;100.00;99708.09;5078141;28;19926;-77
2023/10/25 08:05:38;;;;;;;;;;;;;;;8.46;100.00;99705.50;5074077;28;19920;-76
2023/10/25 08:08:03;;;;;;;;;;;;;;;8.47;100.00;99707.19;5082802;28;19924;-77
2023/10/25 08:10:28;;;;;;;;;;;;;;;8.48;100.00;99707.16;5074761;28;19920;-77
2023/10/25 08:12:53;;;;;;;;;;;;;;;8.49;100.00;99702.81;5086403;28;19920;-76
2023/10/25 08:15:19;;;;;;;;;;;;;;;8.50;100.00;99694.09;5081655;28;19916;-76
2023/10/25 08:17:44;;;;;;;;;;;;;;;8.52;100.00;99692.31;5076979;28;19959;-76
2023/10/25 08:20:09;;;;;;;;;;;;;;;8.57;100.00;99693.03;5088189;28;20611;-77
2023/10/25 08:22:35;;;;;;;;;;;;;;;8.64;100.00;99687.56;5069964;28;19915;-76
2023/10/25 08:25:01;;;;;;;;;;;;;;;8.73;100.00;99675.16;5086279;28;19924;-77
2023/10/25 08:27:28;;;;;;;;;;;;;;;8.76;100.00;99672.44;5083527;28;20293;-77
2023/10/25 08:29:53;;;;;;;;;;;;;;;8.81;100.00;99673.16;5088437;28;19975;-77
2023/10/25 08:32:18;;;;;;;;;;;;;;;8.82;100.00;99670.47;5081166;28;19924;-76
2023/10/25 08:34:46;;;;;;;;;;;;;;;8.78;100.00;99665.44;5072160;28;20031;-76
2023/10/25 08:37:12;;;;;;;;;;;;;;;8.73;100.00;99657.84;5083760;28;19959;-77
2023/10/25 08:39:40;;;;;;;;;;;;;;;8.70;100.00;99652.75;5081888;28;19963;-75
2023/10/25 08:42:09;;;;;;;;;;;;;;;8.67;100.00;99640.69;5071616;28;19928;-75
2023/10/25 08:44:39;;;;;;;;;;;;;;;8.68;100.00;99641.53;5080453;28;20295;-74
2023/10/25 08:47:04;;;;;;;;;;;;;;;8.68;100.00;99636.34;5083744;28;19947;-74
2023/10/25 08:49:29;;;;;;;;;;;;;;;8.71;100.00;99638.84;5081842;28;20387;-74
2023/10/25 08:51:55;;;;;;;;;;;;;;;8.70;100.00;99636.28;5080346;28;19927;-74
2023/10/25 08:54:23;;;;;;;;;;;;;;;8.68;100.00;99634.59;5084228;28;19916;-75
2023/10/25 08:56:49;;;;;;;;;;;;;;;8.67;100.00;99626.88;5086284;28;19920;-75
2023/10/25 08:59:15;;;;;;;;;;;;;;;8.67;100.00;99627.72;5083938;28;20071;-74
2023/10/25 09:01:41;;;;;;;;;;;;;;;8.66;100.00;99620.81;5076325;28;19921;-74
2023/10/25 09:04:07;;;;;;;;;;;;;;;8.67;100.00;99612.13;5084196;28;20387;-75
2023/10/25 09:06:32;;;;;;;;;;;;;;;8.64;100.00;99609.63;5082719;28;20013;-75
2023/10/25 09:08:59;;;;;;;;;;;;;;;8.64;100.00;99614.81;5074520;28;20657;-75
2023/10/25 09:11:24;;;;;;;;;;;;;;;8.63;100.00;99607.94;5084118;28;20302;-75
2023/10/25 09:13:54;;;;;;;;;;;;;;;8.65;100.00;99613.91;5082906;28;19916;-75
2023/10/25 09:16:20;;;;;;;;;;;;;;;8.62;100.00;99605.38;5089567;28;20347;-75
2023/10/25 09:18:45;;;;;;;;;;;;;;;8.60;100.00;99609.75;5085919;28;20002;-75
2023/10/25 09:21:10;;;;;;;;;;;;;;;8.58;100.00;99609.84;5080046;28;19924;-75
2023/10/25 09:23:35;;;;;;;;;;;;;;;8.58;100.00;99616.78;5090461;28;19955;-74
2023/10/25 09:26:18;;;;;;;;;;;;;;;8.58;100.00;99622.81;5081549;28;19964;-75
2023/10/25 09:28:45;;;;;;;;;;;;;;;8.58;100.00;99616.78;5080315;28;19920;-74
2023/10/25 09:31:20;;;;;;;;;;;;;;;8.56;100.00;99600.38;5086587;28;19920;-74
2023/10/25 09:33:46;;;;;;;;;;;;;;;8.56;100.00;99590.84;5079279;28;20379;-75
2023/10/25 09:36:12;;;;;;;;;;;;;;;8.55;100.00;99581.38;5089146;28;19922;-75
2023/10/25 09:38:37;;;;;;;;;;;;;;;8.55;100.00;99578.75;5092496;28;20010;-75
2023/10/25 09:41:03;;;;;;;;;;;;;;;8.55;100.00;99575.31;5083454;28;20012;-75
2023/10/25 09:43:29;;;;;;;;;;;;;;;8.52;100.00;99583.22;5092129;28;20425;-74
2023/10/25 09:45:57;;;;;;;;;;;;;;;8.52;100.00;99573.69;5087064;28;19920;-74
2023/10/25 09:48:22;;;;;;;;;;;;;;;8.53;100.00;99564.97;5083842;28;19920;-75
2023/10/25 09:51:01;;;;;;;;;;;;;;;8.53;100.00;99558.94;5089871;28;19920;-75
2023/10/25 09:53:28;;;;;;;;;;;;;;;8.53;100.00;99559.78;5078628;28;19928;-75
2023/10/25 09:55:58;;;;;;;;;;;;;;;8.54;100.00;99553.69;5090364;28;19920;-75
2023/10/25 09:58:24;;;;;;;;;;;;;;;8.55;100.00;99555.38;5083916;28;19932;-75
2023/10/25 10:00:49;;;;;;;;;;;;;;;8.59;100.00;99546.56;5085227;28;19920;-75
2023/10/25 10:03:26;;;;;;;;;;;;;;;8.58;100.00;99544.88;5083831;28;20268;-75
2023/10/25 10:05:55;;;;;;;;;;;;;;;8.58;100.00;99536.25;5078783;28;19950;-75
2023/10/25 10:08:27;;;;;;;;;;;;;;;8.59;100.00;99528.38;5079943;28;19922;-75
2023/10/25 10:11:00;;;;;;;;;;;;;;;8.59;100.00;99524.94;5083389;28;19970;-74
2023/10/25 10:13:26;;;;;;;;;;;;;;;8.58;100.00;99520.66;5075725;28;19920;-75
2023/10/25 10:16:02;;;;;;;;;;;;;;;8.60;100.00;99511.91;5082978;28;19917;-75
2023/10/25 10:18:30;;;;;;;;;;;;;;;8.62;100.00;99511.84;5093806;28;19924;-76
2023/10/25 10:21:00;;;;;;;;;;;;;;;8.65;100.00;99504.78;5089355;28;19916;-77
2023/10/25 10:23:56;;;;;;;;;;;;;;;8.65;100.00;99498.75;5092352;28;19927;-77
2023/10/25 10:26:44;;;;;;;;;;;;;;;8.70;100.00;99483.84;5068238;28;19925;-76
2023/10/25 10:29:28;;;;;;;;;;;;;;;8.71;100.00;99472.53;5086315;28;20007;-77
2023/10/25 10:31:56;;;;;;;;;;;;;;;8.75;100.00;99475.88;5074661;28;20007;-77
2023/10/25 10:34:41;;;;;;;;;;;;;;;8.74;100.00;99472.44;5090510;28;20012;-76
2023/10/25 10:37:16;;;;;;;;;;;;;;;8.77;100.00;99471.47;5077127;28;19920;-77
2023/10/25 10:39:56;;;;;;;;;;;;;;;8.79;100.00;99457.50;5091090;28;19920;-77
2023/10/25 10:42:30;;;;;;;;;;;;;;;8.81;100.00;99452.25;5085307;28;19956;-76
2023/10/25 10:44:56;;;;;;;;;;;;;;;8.83;100.00;99447.84;5085624;28;19973;-76
2023/10/25 10:47:28;;;;;;;;;;;;;;;8.84;100.00;99446.94;5085179;28;20375;-76
2023/10/25 10:49:56;;;;;;;;;;;;;;;8.86;100.00;99440.78;5082571;28;19920;-77
2023/10/25 10:52:22;;;;;;;;;;;;;;;8.89;100.00;99439.78;5085607;28;19920;-76
2023/10/25 10:54:47;;;;;;;;;;;;;;;8.91;100.00;99435.41;5082959;28;19966;-76
2023/10/25 10:57:14;;;;;;;;;;;;;;;8.91;100.00;99419.81;5088740;28;19920;-76
2023/10/25 10:59:44;;;;;;;;;;;;;;;8.91;100.00;99422.41;5084323;28;19924;-76
2023/10/25 11:02:09;;;;;;;;;;;;;;;8.90;100.00;99408.56;5083901;28;19924;-77
2023/10/25 11:04:34;;;;;;;;;;;;;;;8.90;100.00;99405.97;5085671;28;19924;-77
2023/10/25 11:06:59;;;;;;;;;;;;;;;8.91;100.00;99402.44;5084116;28;19920;-76
2023/10/25 11:09:25;;;;;;;;;;;;;;;8.93;100.00;99393.75;5082178;28;19936;-77
2023/10/25 11:11:50;;;;;;;;;;;;;;;8.93;100.00;99394.59;5078016;28;19920;-77
2023/10/25 11:14:15;;;;;;;;;;;;;;;8.91;100.00;99386.00;5091651;28;20457;-76
2023/10/25 11:16:40;;;;;;;;;;;;;;;8.94;100.00;99379.84;5084638;28;20431;-76
2023/10/25 11:19:09;;;;;;;;;;;;;;;8.96;100.00;99376.28;5084550;28;19917;-76
2023/10/25 11:21:35;;;;;;;;;;;;;;;8.99;100.00;99368.38;5084862;28;20397;-77
2023/10/25 11:24:06;;;;;;;;;;;;;;;9.00;100.00;99372.66;5085398;28;19920;-77
2023/10/25 11:26:37;;;;;;;;;;;;;;;9.00;100.00;99366.63;5084175;28;19920;-77
2023/10/25 11:29:02;;;;;;;;;;;;;;;8.99;100.00;99357.97;5086483;28;19928;-77
2023/10/25 11:31:31;;;;;;;;;;;;;;;9.00;100.00;99351.03;5082051;28;19924;-77
2023/10/25 11:33:57;;;;;;;;;;;;;;;9.02;100.00;99346.59;5080383;28;19920;-77
2023/10/25 11:36:22;;;;;;;;;;;;;;;9.02;100.00;99351.78;5084653;28;19928;-77
2023/10/25 11:38:47;;;;;;;;;;;;;;;9.07;100.00;99339.47;5090343;28;19982;-76
2023/10/25 11:41:12;;;;;;;;;;;;;;;9.02;100.00;99336.19;5081469;28;19921;-77
2023/10/25 11:43:38;;;;;;;;;;;;;;;9.03;100.00;99338.75;5089184;28;19920;-76
2023/10/25 11:46:04;;;;;;;;;;;;;;;9.04;100.00;99331.78;5083758;28;19928;-75
2023/10/25 11:48:29;;;;;;;;;;;;;;;9.06;100.00;99330.81;5081811;28;19946;-75
2023/10/25 11:50:54;;;;;;;;;;;;;;;9.08;100.00;99326.38;5086210;28;19916;-75
2023/10/25 11:53:19;;;;;;;;;;;;;;;9.10;100.00;99321.97;5081258;28;19920;-75
2023/10/25 11:55:44;;;;;;;;;;;;;;;9.15;100.00;99308.78;5087728;28;19920;-75
2023/10/25 11:58:15;;;;;;;;;;;;;;;9.17;100.00;99309.56;5080617;28;19920;-75
2023/10/25 12:00:40;;;;;;;;;;;;;;;9.18;100.00;99308.66;5086497;28;20001;-75
2023/10/25 12:03:05;;;;;;;;;;;;;;;9.18;100.00;99303.44;5082727;28;20380;-75
2023/10/25 12:05:30;;;;;;;;;;;;;;;9.22;100.00;99298.94;5083143;28;20011;-75
2023/10/25 12:07:56;;;;;;;;;;;;;;;9.21;100.00;99290.31;5088771;28;19920;-75
2023/10/25 12:10:21;;;;;;;;;;;;;;;9.24;100.00;99287.59;5076008;28;19920;-75
2023/10/25 12:12:47;;;;;;;;;;;;;;;9.25;100.00;99284.06;5083627;28;19958;-75
2023/10/25 12:15:12;;;;;;;;;;;;;;;9.24;100.00;99282.38;5085726;28;19923;-75
2023/10/25 12:17:37;;;;;;;;;;;;;;;9.25;100.00;99263.25;5084726;28;20294;-75
2023/10/25 12:20:02;;;;;;;;;;;;;;;9.28;100.00;99275.28;5083324;28;20015;-75
2023/10/25 12:22:27;;;;;;;;;;;;;;;9.26;100.00;99277.97;5083656;28;20003;-77
2023/10/25 12:24:53;;;;;;;;;;;;;;;9.26;100.00;99264.13;5084372;28;19993;-77
2023/10/25 12:27:18;;;;;;;;;;;;;;;9.29;100.00;99266.59;5082348;28;20003;-76
2023/10/25 12:29:44;;;;;;;;;;;;;;;9.29;100.00;99258.81;5084057;28;19924;-77
2023/10/25 12:32:09;;;;;;;;;;;;;;;9.32;100.00;99262.13;5084171;28;19970;-77
2023/10/25 12:34:34;;;;;;;;;;;;;;;9.34;100.00;99252.47;5082906;28;19967;-77
2023/10/25 12:37:00;;;;;;;;;;;;;;;9.40;100.00;99250.53;5086178;28;19927;-77